sensor_id;sensor_type;location;lat;lon;timestamp;temperature;humidity
40023;DHT22;25713;-35.352;149.036;2024-01-16T00:00:01;18.80;95.00
40023;DHT22;25713;-35.352;149.036;2024-01-16T00:02:36;18.80;95.20
40023;DHT22;25713;-35.352;149.036;2024-01-16T00:05:12;18.80;95.20
40023;DHT22;25713;-35.352;149.036;2024-01-16T00:07:42;18.80;95.30
40023;DHT22;25713;-35.352;149.036;2024-01-16T00:10:12;18.80;95.40
40023;DHT22;25713;-35.352;149.036;2024-01-16T00:12:43;18.90;95.50
40023;DHT22;25713;-35.352;149.036;2024-01-16T00:15:18;18.90;95.40
40023;DHT22;25713;-35.352;149.036;2024-01-16T00:17:49;18.90;95.40
40023;DHT22;25713;-35.352;149.036;2024-01-16T00:20:24;18.90;95.40
40023;DHT22;25713;-35.352;149.036;2024-01-16T00:22:54;18.90;95.50
40023;DHT22;25713;-35.352;149.036;2024-01-16T00:25:28;18.90;95.60
40023;DHT22;25713;-35.352;149.036;2024-01-16T00:27:59;18.90;96.00
40023;DHT22;25713;-35.352;149.036;2024-01-16T00:30:31;18.90;95.80
40023;DHT22;25713;-35.352;149.036;2024-01-16T00:33:01;18.90;95.80
40023;DHT22;25713;-35.352;149.036;2024-01-16T00:35:34;18.90;95.80
40023;DHT22;25713;-35.352;149.036;2024-01-16T00:38:04;18.90;95.80
40023;DHT22;25713;-35.352;149.036;2024-01-16T00:40:34;18.90;95.80
40023;DHT22;25713;-35.352;149.036;2024-01-16T00:43:07;18.90;95.90
40023;DHT22;25713;-35.352;149.036;2024-01-16T00:45:39;18.90;95.90
40023;DHT22;25713;-35.352;149.036;2024-01-16T00:48:10;18.90;95.90
40023;DHT22;25713;-35.352;149.036;2024-01-16T00:50:42;19.00;95.90
40023;DHT22;25713;-35.352;149.036;2024-01-16T00:53:13;19.00;96.00
40023;DHT22;25713;-35.352;149.036;2024-01-16T00:55:47;19.00;96.10
40023;DHT22;25713;-35.352;149.036;2024-01-16T00:58:18;19.00;96.30
40023;DHT22;25713;-35.352;149.036;2024-01-16T01:00:49;19.00;96.30
40023;DHT22;25713;-35.352;149.036;2024-01-16T01:03:19;18.90;96.30
40023;DHT22;25713;-35.352;149.036;2024-01-16T01:05:53;19.00;96.30
40023;DHT22;25713;-35.352;149.036;2024-01-16T01:08:28;19.00;96.20
40023;DHT22;25713;-35.352;149.036;2024-01-16T01:10:59;19.00;96.60
40023;DHT22;25713;-35.352;149.036;2024-01-16T01:13:29;19.00;96.50
40023;DHT22;25713;-35.352;149.036;2024-01-16T01:16:00;19.00;96.70
40023;DHT22;25713;-35.352;149.036;2024-01-16T01:18:30;19.00;96.70
40023;DHT22;25713;-35.352;149.036;2024-01-16T01:21:02;19.00;96.60
40023;DHT22;25713;-35.352;149.036;2024-01-16T01:23:33;19.00;96.80
40023;DHT22;25713;-35.352;149.036;2024-01-16T01:26:04;19.00;97.10
40023;DHT22;25713;-35.352;149.036;2024-01-16T01:28:35;19.00;96.90
40023;DHT22;25713;-35.352;149.036;2024-01-16T01:31:05;19.00;97.10
40023;DHT22;25713;-35.352;149.036;2024-01-16T01:33:38;19.00;97.00
40023;DHT22;25713;-35.352;149.036;2024-01-16T01:36:16;19.00;97.00
40023;DHT22;25713;-35.352;149.036;2024-01-16T01:38:48;19.00;97.00
40023;DHT22;25713;-35.352;149.036;2024-01-16T01:41:24;19.00;97.00
40023;DHT22;25713;-35.352;149.036;2024-01-16T01:43:55;19.00;97.30
40023;DHT22;25713;-35.352;149.036;2024-01-16T01:46:26;19.10;97.40
40023;DHT22;25713;-35.352;149.036;2024-01-16T01:48:57;19.10;97.60
40023;DHT22;25713;-35.352;149.036;2024-01-16T01:51:33;19.10;98.10
40023;DHT22;25713;-35.352;149.036;2024-01-16T01:54:07;19.00;97.60
40023;DHT22;25713;-35.352;149.036;2024-01-16T01:56:42;19.00;97.70
40023;DHT22;25713;-35.352;149.036;2024-01-16T01:59:15;19.00;97.70
40023;DHT22;25713;-35.352;149.036;2024-01-16T02:01:59;19.10;97.90
40023;DHT22;25713;-35.352;149.036;2024-01-16T02:04:30;19.10;98.00
40023;DHT22;25713;-35.352;149.036;2024-01-16T02:07:06;19.20;98.50
40023;DHT22;25713;-35.352;149.036;2024-01-16T02:09:36;19.30;98.20
40023;DHT22;25713;-35.352;149.036;2024-01-16T02:12:08;19.30;98.00
40023;DHT22;25713;-35.352;149.036;2024-01-16T02:14:44;19.30;97.90
40023;DHT22;25713;-35.352;149.036;2024-01-16T02:17:14;19.30;98.00
40023;DHT22;25713;-35.352;149.036;2024-01-16T02:19:51;19.30;98.00
40023;DHT22;25713;-35.352;149.036;2024-01-16T02:22:27;19.30;98.60
40023;DHT22;25713;-35.352;149.036;2024-01-16T02:25:06;19.30;98.10
40023;DHT22;25713;-35.352;149.036;2024-01-16T02:27:40;19.30;98.30
40023;DHT22;25713;-35.352;149.036;2024-01-16T02:30:12;19.40;98.20
40023;DHT22;25713;-35.352;149.036;2024-01-16T02:32:45;19.40;97.90
40023;DHT22;25713;-35.352;149.036;2024-01-16T02:35:20;19.40;97.80
40023;DHT22;25713;-35.352;149.036;2024-01-16T02:37:56;19.50;97.90
40023;DHT22;25713;-35.352;149.036;2024-01-16T02:40:33;19.40;98.00
40023;DHT22;25713;-35.352;149.036;2024-01-16T02:43:06;19.40;98.20
40023;DHT22;25713;-35.352;149.036;2024-01-16T02:45:37;19.40;98.20
40023;DHT22;25713;-35.352;149.036;2024-01-16T02:48:09;19.40;98.40
40023;DHT22;25713;-35.352;149.036;2024-01-16T02:50:41;19.40;97.90
40023;DHT22;25713;-35.352;149.036;2024-01-16T02:53:15;19.40;98.00
40023;DHT22;25713;-35.352;149.036;2024-01-16T02:55:49;19.40;98.20
40023;DHT22;25713;-35.352;149.036;2024-01-16T02:58:21;19.40;98.30
40023;DHT22;25713;-35.352;149.036;2024-01-16T03:00:53;19.40;98.30
40023;DHT22;25713;-35.352;149.036;2024-01-16T03:03:23;19.40;98.20
40023;DHT22;25713;-35.352;149.036;2024-01-16T03:05:55;19.40;98.20
40023;DHT22;25713;-35.352;149.036;2024-01-16T03:08:26;19.40;98.40
40023;DHT22;25713;-35.352;149.036;2024-01-16T03:10:58;19.50;98.30
40023;DHT22;25713;-35.352;149.036;2024-01-16T03:13:30;19.40;98.40
40023;DHT22;25713;-35.352;149.036;2024-01-16T03:16:01;19.50;98.30
40023;DHT22;25713;-35.352;149.036;2024-01-16T03:18:37;19.50;98.20
40023;DHT22;25713;-35.352;149.036;2024-01-16T03:21:08;19.50;98.20
40023;DHT22;25713;-35.352;149.036;2024-01-16T03:23:39;19.50;98.30
40023;DHT22;25713;-35.352;149.036;2024-01-16T03:26:18;19.50;98.60
40023;DHT22;25713;-35.352;149.036;2024-01-16T03:28:51;19.50;98.30
40023;DHT22;25713;-35.352;149.036;2024-01-16T03:31:21;19.50;98.20
40023;DHT22;25713;-35.352;149.036;2024-01-16T03:33:51;19.50;98.60
40023;DHT22;25713;-35.352;149.036;2024-01-16T03:36:21;19.50;98.70
40023;DHT22;25713;-35.352;149.036;2024-01-16T03:38:54;19.50;98.30
40023;DHT22;25713;-35.352;149.036;2024-01-16T03:41:28;19.50;98.20
40023;DHT22;25713;-35.352;149.036;2024-01-16T03:44:01;19.50;98.30
40023;DHT22;25713;-35.352;149.036;2024-01-16T03:46:32;19.50;98.40
40023;DHT22;25713;-35.352;149.036;2024-01-16T03:49:05;19.50;98.40
40023;DHT22;25713;-35.352;149.036;2024-01-16T03:51:36;19.50;98.50
40023;DHT22;25713;-35.352;149.036;2024-01-16T03:54:07;19.50;98.60
40023;DHT22;25713;-35.352;149.036;2024-01-16T03:56:40;19.50;98.20
40023;DHT22;25713;-35.352;149.036;2024-01-16T03:59:12;19.50;98.30
40023;DHT22;25713;-35.352;149.036;2024-01-16T04:01:44;19.50;98.40
40023;DHT22;25713;-35.352;149.036;2024-01-16T04:04:15;19.50;98.40
40023;DHT22;25713;-35.352;149.036;2024-01-16T04:06:46;19.50;98.30
40023;DHT22;25713;-35.352;149.036;2024-01-16T04:09:16;19.50;98.40
40023;DHT22;25713;-35.352;149.036;2024-01-16T04:11:51;19.50;98.50
40023;DHT22;25713;-35.352;149.036;2024-01-16T04:14:22;19.50;98.60
40023;DHT22;25713;-35.352;149.036;2024-01-16T04:16:54;19.50;98.60
40023;DHT22;25713;-35.352;149.036;2024-01-16T04:19:25;19.50;98.30
40023;DHT22;25713;-35.352;149.036;2024-01-16T04:21:57;19.50;98.30
40023;DHT22;25713;-35.352;149.036;2024-01-16T04:24:27;19.50;98.40
40023;DHT22;25713;-35.352;149.036;2024-01-16T04:27:03;19.50;98.30
40023;DHT22;25713;-35.352;149.036;2024-01-16T04:29:33;19.50;98.50
40023;DHT22;25713;-35.352;149.036;2024-01-16T04:32:06;19.50;98.70
40023;DHT22;25713;-35.352;149.036;2024-01-16T04:34:36;19.50;98.80
40023;DHT22;25713;-35.352;149.036;2024-01-16T04:37:10;19.50;98.70
40023;DHT22;25713;-35.352;149.036;2024-01-16T04:39:40;19.50;98.60
40023;DHT22;25713;-35.352;149.036;2024-01-16T04:42:21;19.50;98.60
40023;DHT22;25713;-35.352;149.036;2024-01-16T04:44:51;19.60;98.60
40023;DHT22;25713;-35.352;149.036;2024-01-16T04:47:21;19.60;98.60
40023;DHT22;25713;-35.352;149.036;2024-01-16T04:49:51;19.60;98.60
40023;DHT22;25713;-35.352;149.036;2024-01-16T04:52:22;19.60;98.60
40023;DHT22;25713;-35.352;149.036;2024-01-16T04:54:52;19.60;98.60
40023;DHT22;25713;-35.352;149.036;2024-01-16T04:57:25;19.60;98.60
40023;DHT22;25713;-35.352;149.036;2024-01-16T04:59:55;19.60;99.10
40023;DHT22;25713;-35.352;149.036;2024-01-16T05:02:25;19.60;98.90
40023;DHT22;25713;-35.352;149.036;2024-01-16T05:04:55;19.60;98.90
40023;DHT22;25713;-35.352;149.036;2024-01-16T05:07:28;19.50;98.90
40023;DHT22;25713;-35.352;149.036;2024-01-16T05:09:58;19.60;98.80
40023;DHT22;25713;-35.352;149.036;2024-01-16T05:12:31;19.60;98.90
40023;DHT22;25713;-35.352;149.036;2024-01-16T05:15:00;19.60;98.80
40023;DHT22;25713;-35.352;149.036;2024-01-16T05:17:32;19.60;98.80
40023;DHT22;25713;-35.352;149.036;2024-01-16T05:20:03;19.60;98.80
40023;DHT22;25713;-35.352;149.036;2024-01-16T05:22:32;19.60;98.80
40023;DHT22;25713;-35.352;149.036;2024-01-16T05:25:03;19.60;98.90
40023;DHT22;25713;-35.352;149.036;2024-01-16T05:27:36;19.60;99.20
40023;DHT22;25713;-35.352;149.036;2024-01-16T05:30:07;19.60;99.30
40023;DHT22;25713;-35.352;149.036;2024-01-16T05:32:36;19.60;99.30
40023;DHT22;25713;-35.352;149.036;2024-01-16T05:35:06;19.60;99.10
40023;DHT22;25713;-35.352;149.036;2024-01-16T05:37:36;19.60;99.00
40023;DHT22;25713;-35.352;149.036;2024-01-16T05:40:06;19.60;99.10
40023;DHT22;25713;-35.352;149.036;2024-01-16T05:42:39;19.60;99.70
40023;DHT22;25713;-35.352;149.036;2024-01-16T05:45:09;19.60;99.90
40023;DHT22;25713;-35.352;149.036;2024-01-16T05:47:39;19.60;99.80
40023;DHT22;25713;-35.352;149.036;2024-01-16T05:50:09;19.60;99.70
40023;DHT22;25713;-35.352;149.036;2024-01-16T05:52:38;19.60;99.60
40023;DHT22;25713;-35.352;149.036;2024-01-16T05:55:08;19.60;99.60
40023;DHT22;25713;-35.352;149.036;2024-01-16T05:57:41;19.60;99.80
40023;DHT22;25713;-35.352;149.036;2024-01-16T06:00:11;19.60;99.90
40023;DHT22;25713;-35.352;149.036;2024-01-16T06:02:41;19.60;99.90
40023;DHT22;25713;-35.352;149.036;2024-01-16T06:05:10;19.60;99.90
40023;DHT22;25713;-35.352;149.036;2024-01-16T06:07:40;19.60;99.70
40023;DHT22;25713;-35.352;149.036;2024-01-16T06:10:12;19.60;99.70
40023;DHT22;25713;-35.352;149.036;2024-01-16T06:12:44;19.60;99.70
40023;DHT22;25713;-35.352;149.036;2024-01-16T06:15:13;19.60;99.90
40023;DHT22;25713;-35.352;149.036;2024-01-16T06:17:43;19.60;99.90
40023;DHT22;25713;-35.352;149.036;2024-01-16T06:20:12;19.60;99.90
40023;DHT22;25713;-35.352;149.036;2024-01-16T06:22:42;19.60;99.90
40023;DHT22;25713;-35.352;149.036;2024-01-16T06:25:11;19.60;99.90
40023;DHT22;25713;-35.352;149.036;2024-01-16T06:27:45;19.60;99.90
40023;DHT22;25713;-35.352;149.036;2024-01-16T06:30:14;19.70;99.90
40023;DHT22;25713;-35.352;149.036;2024-01-16T06:32:44;19.70;99.90
40023;DHT22;25713;-35.352;149.036;2024-01-16T06:35:14;19.70;99.90
40023;DHT22;25713;-35.352;149.036;2024-01-16T06:37:43;19.70;99.90
40023;DHT22;25713;-35.352;149.036;2024-01-16T06:40:13;19.70;99.90
40023;DHT22;25713;-35.352;149.036;2024-01-16T06:42:45;19.70;99.90
40023;DHT22;25713;-35.352;149.036;2024-01-16T06:45:14;19.70;99.90
40023;DHT22;25713;-35.352;149.036;2024-01-16T06:47:44;19.70;99.90
40023;DHT22;25713;-35.352;149.036;2024-01-16T06:50:13;19.70;99.90
40023;DHT22;25713;-35.352;149.036;2024-01-16T06:52:43;19.70;99.90
40023;DHT22;25713;-35.352;149.036;2024-01-16T06:55:13;19.70;99.90
40023;DHT22;25713;-35.352;149.036;2024-01-16T06:57:44;19.70;99.90
40023;DHT22;25713;-35.352;149.036;2024-01-16T07:00:15;19.70;99.90
40023;DHT22;25713;-35.352;149.036;2024-01-16T07:02:44;19.70;99.90
40023;DHT22;25713;-35.352;149.036;2024-01-16T07:05:14;19.70;99.90
40023;DHT22;25713;-35.352;149.036;2024-01-16T07:07:44;19.70;99.90
40023;DHT22;25713;-35.352;149.036;2024-01-16T07:10:13;19.70;99.90
40023;DHT22;25713;-35.352;149.036;2024-01-16T07:12:45;19.70;99.90
40023;DHT22;25713;-35.352;149.036;2024-01-16T07:15:15;19.70;99.90
40023;DHT22;25713;-35.352;149.036;2024-01-16T07:17:45;19.70;99.90
40023;DHT22;25713;-35.352;149.036;2024-01-16T07:20:15;19.70;99.90
40023;DHT22;25713;-35.352;149.036;2024-01-16T07:22:44;19.70;99.90
40023;DHT22;25713;-35.352;149.036;2024-01-16T07:25:14;19.80;99.90
40023;DHT22;25713;-35.352;149.036;2024-01-16T07:27:45;19.80;99.90
40023;DHT22;25713;-35.352;149.036;2024-01-16T07:30:15;19.80;99.90
40023;DHT22;25713;-35.352;149.036;2024-01-16T07:32:44;19.80;99.90
40023;DHT22;25713;-35.352;149.036;2024-01-16T07:35:14;19.80;99.90
40023;DHT22;25713;-35.352;149.036;2024-01-16T07:37:44;19.80;99.90
40023;DHT22;25713;-35.352;149.036;2024-01-16T07:40:13;19.80;99.90
40023;DHT22;25713;-35.352;149.036;2024-01-16T07:42:45;19.80;99.90
40023;DHT22;25713;-35.352;149.036;2024-01-16T07:45:14;19.80;99.90
40023;DHT22;25713;-35.352;149.036;2024-01-16T07:47:44;19.80;99.90
40023;DHT22;25713;-35.352;149.036;2024-01-16T07:50:13;19.80;99.90
40023;DHT22;25713;-35.352;149.036;2024-01-16T07:52:43;19.80;99.90
40023;DHT22;25713;-35.352;149.036;2024-01-16T07:55:13;19.80;99.90
40023;DHT22;25713;-35.352;149.036;2024-01-16T07:57:44;19.80;99.90
40023;DHT22;25713;-35.352;149.036;2024-01-16T08:00:14;19.80;99.90
40023;DHT22;25713;-35.352;149.036;2024-01-16T08:02:44;19.80;99.90
40023;DHT22;25713;-35.352;149.036;2024-01-16T08:05:13;19.80;99.90
40023;DHT22;25713;-35.352;149.036;2024-01-16T08:07:44;19.80;99.90
40023;DHT22;25713;-35.352;149.036;2024-01-16T08:10:13;19.80;99.90
40023;DHT22;25713;-35.352;149.036;2024-01-16T08:12:45;19.90;99.90
40023;DHT22;25713;-35.352;149.036;2024-01-16T08:15:15;19.80;99.90
40023;DHT22;25713;-35.352;149.036;2024-01-16T08:17:44;19.80;99.90
40023;DHT22;25713;-35.352;149.036;2024-01-16T08:20:14;19.80;99.90
40023;DHT22;25713;-35.352;149.036;2024-01-16T08:22:43;19.80;99.90
40023;DHT22;25713;-35.352;149.036;2024-01-16T08:25:13;19.80;99.90
40023;DHT22;25713;-35.352;149.036;2024-01-16T08:27:44;19.80;99.90
40023;DHT22;25713;-35.352;149.036;2024-01-16T08:30:14;19.90;99.90
40023;DHT22;25713;-35.352;149.036;2024-01-16T08:32:44;19.80;99.90
40023;DHT22;25713;-35.352;149.036;2024-01-16T08:35:13;19.80;99.90
40023;DHT22;25713;-35.352;149.036;2024-01-16T08:37:43;19.90;99.90
40023;DHT22;25713;-35.352;149.036;2024-01-16T08:40:12;19.80;99.90
40023;DHT22;25713;-35.352;149.036;2024-01-16T08:42:44;19.90;99.90
40023;DHT22;25713;-35.352;149.036;2024-01-16T08:45:14;19.80;99.90
40023;DHT22;25713;-35.352;149.036;2024-01-16T08:47:43;19.80;99.90
40023;DHT22;25713;-35.352;149.036;2024-01-16T08:50:13;19.80;99.90
40023;DHT22;25713;-35.352;149.036;2024-01-16T08:52:42;19.80;99.90
40023;DHT22;25713;-35.352;149.036;2024-01-16T08:55:12;19.80;99.90
40023;DHT22;25713;-35.352;149.036;2024-01-16T08:57:42;19.80;99.90
40023;DHT22;25713;-35.352;149.036;2024-01-16T09:00:14;19.80;99.90
40023;DHT22;25713;-35.352;149.036;2024-01-16T09:02:42;19.80;99.90
40023;DHT22;25713;-35.352;149.036;2024-01-16T09:05:12;19.80;99.90
40023;DHT22;25713;-35.352;149.036;2024-01-16T09:07:41;19.80;99.90
40023;DHT22;25713;-35.352;149.036;2024-01-16T09:10:11;19.80;99.90
40023;DHT22;25713;-35.352;149.036;2024-01-16T09:12:40;19.80;99.90
40023;DHT22;25713;-35.352;149.036;2024-01-16T09:15:13;19.80;99.90
40023;DHT22;25713;-35.352;149.036;2024-01-16T09:17:41;19.80;99.90
40023;DHT22;25713;-35.352;149.036;2024-01-16T09:20:11;19.80;99.90
40023;DHT22;25713;-35.352;149.036;2024-01-16T09:22:41;19.80;99.90
40023;DHT22;25713;-35.352;149.036;2024-01-16T09:25:10;19.80;99.90
40023;DHT22;25713;-35.352;149.036;2024-01-16T09:27:40;19.80;99.90
40023;DHT22;25713;-35.352;149.036;2024-01-16T09:30:10;19.80;99.90
40023;DHT22;25713;-35.352;149.036;2024-01-16T09:32:41;19.80;99.90
40023;DHT22;25713;-35.352;149.036;2024-01-16T09:35:11;19.80;99.90
40023;DHT22;25713;-35.352;149.036;2024-01-16T09:37:41;19.80;99.90
40023;DHT22;25713;-35.352;149.036;2024-01-16T09:40:11;19.80;99.90
40023;DHT22;25713;-35.352;149.036;2024-01-16T09:42:41;19.80;99.90
40023;DHT22;25713;-35.352;149.036;2024-01-16T09:45:10;19.80;99.90
40023;DHT22;25713;-35.352;149.036;2024-01-16T09:47:43;19.80;99.90
40023;DHT22;25713;-35.352;149.036;2024-01-16T09:50:13;19.70;99.90
40023;DHT22;25713;-35.352;149.036;2024-01-16T09:52:43;19.70;99.90
40023;DHT22;25713;-35.352;149.036;2024-01-16T09:55:13;19.80;99.90
40023;DHT22;25713;-35.352;149.036;2024-01-16T09:57:43;19.70;99.90
40023;DHT22;25713;-35.352;149.036;2024-01-16T10:00:14;19.70;99.90
40023;DHT22;25713;-35.352;149.036;2024-01-16T10:02:48;19.70;99.90
40023;DHT22;25713;-35.352;149.036;2024-01-16T10:05:19;19.80;99.90
40023;DHT22;25713;-35.352;149.036;2024-01-16T10:07:49;19.70;99.90
40023;DHT22;25713;-35.352;149.036;2024-01-16T10:10:19;19.80;99.90
40023;DHT22;25713;-35.352;149.036;2024-01-16T10:12:49;19.70;99.90
40023;DHT22;25713;-35.352;149.036;2024-01-16T10:15:21;19.70;99.90
40023;DHT22;25713;-35.352;149.036;2024-01-16T10:17:53;19.70;99.90
40023;DHT22;25713;-35.352;149.036;2024-01-16T10:20:34;19.70;99.90
40023;DHT22;25713;-35.352;149.036;2024-01-16T10:23:04;19.70;99.90
40023;DHT22;25713;-35.352;149.036;2024-01-16T10:25:33;19.70;99.90
40023;DHT22;25713;-35.352;149.036;2024-01-16T10:28:06;19.70;99.90
40023;DHT22;25713;-35.352;149.036;2024-01-16T10:30:36;19.70;99.90
40023;DHT22;25713;-35.352;149.036;2024-01-16T10:33:16;19.70;99.90
40023;DHT22;25713;-35.352;149.036;2024-01-16T10:35:46;19.70;99.90
40023;DHT22;25713;-35.352;149.036;2024-01-16T10:38:22;19.70;99.90
40023;DHT22;25713;-35.352;149.036;2024-01-16T10:41:06;19.70;99.90
40023;DHT22;25713;-35.352;149.036;2024-01-16T10:43:35;19.70;99.90
40023;DHT22;25713;-35.352;149.036;2024-01-16T10:46:12;19.70;99.90
40023;DHT22;25713;-35.352;149.036;2024-01-16T10:48:44;19.70;99.90
40023;DHT22;25713;-35.352;149.036;2024-01-16T10:51:15;19.70;99.90
40023;DHT22;25713;-35.352;149.036;2024-01-16T10:53:45;19.70;99.90
40023;DHT22;25713;-35.352;149.036;2024-01-16T10:56:17;19.70;99.90
40023;DHT22;25713;-35.352;149.036;2024-01-16T10:58:52;19.70;99.90
40023;DHT22;25713;-35.352;149.036;2024-01-16T11:01:23;19.70;99.90
40023;DHT22;25713;-35.352;149.036;2024-01-16T11:03:56;19.70;99.90
40023;DHT22;25713;-35.352;149.036;2024-01-16T11:06:27;19.70;99.90
40023;DHT22;25713;-35.352;149.036;2024-01-16T11:08:57;19.70;99.90
40023;DHT22;25713;-35.352;149.036;2024-01-16T11:11:28;19.60;99.90
40023;DHT22;25713;-35.352;149.036;2024-01-16T11:13:59;19.70;99.90
40023;DHT22;25713;-35.352;149.036;2024-01-16T11:16:29;19.60;99.90
40023;DHT22;25713;-35.352;149.036;2024-01-16T11:19:05;19.70;99.90
40023;DHT22;25713;-35.352;149.036;2024-01-16T11:21:37;19.60;99.90
40023;DHT22;25713;-35.352;149.036;2024-01-16T11:24:07;19.60;99.90
40023;DHT22;25713;-35.352;149.036;2024-01-16T11:26:40;19.60;99.90
40023;DHT22;25713;-35.352;149.036;2024-01-16T11:29:34;19.60;99.90
40023;DHT22;25713;-35.352;149.036;2024-01-16T11:32:04;19.60;99.90
40023;DHT22;25713;-35.352;149.036;2024-01-16T11:34:56;19.60;99.90
40023;DHT22;25713;-35.352;149.036;2024-01-16T11:37:30;19.60;99.90
40023;DHT22;25713;-35.352;149.036;2024-01-16T11:40:24;19.60;99.90
40023;DHT22;25713;-35.352;149.036;2024-01-16T11:42:54;19.60;99.90
40023;DHT22;25713;-35.352;149.036;2024-01-16T11:45:51;19.60;99.90
40023;DHT22;25713;-35.352;149.036;2024-01-16T11:48:20;19.60;99.90
40023;DHT22;25713;-35.352;149.036;2024-01-16T11:50:52;19.60;99.90
40023;DHT22;25713;-35.352;149.036;2024-01-16T11:53:42;19.60;99.90
40023;DHT22;25713;-35.352;149.036;2024-01-16T11:56:46;19.60;99.90
40023;DHT22;25713;-35.352;149.036;2024-01-16T11:59:53;19.60;99.90
40023;DHT22;25713;-35.352;149.036;2024-01-16T12:02:29;19.60;99.90
40023;DHT22;25713;-35.352;149.036;2024-01-16T12:05:03;19.60;99.90
40023;DHT22;25713;-35.352;149.036;2024-01-16T12:07:44;19.50;99.90
40023;DHT22;25713;-35.352;149.036;2024-01-16T12:10:14;19.50;99.90
40023;DHT22;25713;-35.352;149.036;2024-01-16T12:12:44;19.60;99.90
40023;DHT22;25713;-35.352;149.036;2024-01-16T12:15:17;19.50;99.90
40023;DHT22;25713;-35.352;149.036;2024-01-16T12:17:56;19.50;99.90
40023;DHT22;25713;-35.352;149.036;2024-01-16T12:20:27;19.50;99.90
40023;DHT22;25713;-35.352;149.036;2024-01-16T12:23:00;19.50;99.90
40023;DHT22;25713;-35.352;149.036;2024-01-16T12:25:29;19.50;99.90
40023;DHT22;25713;-35.352;149.036;2024-01-16T12:28:00;19.50;99.90
40023;DHT22;25713;-35.352;149.036;2024-01-16T12:30:31;19.50;99.90
40023;DHT22;25713;-35.352;149.036;2024-01-16T12:33:08;19.50;99.90
40023;DHT22;25713;-35.352;149.036;2024-01-16T12:35:39;19.50;99.90
40023;DHT22;25713;-35.352;149.036;2024-01-16T12:38:11;19.50;99.90
40023;DHT22;25713;-35.352;149.036;2024-01-16T12:40:42;19.50;99.90
40023;DHT22;25713;-35.352;149.036;2024-01-16T12:43:12;19.50;99.90
40023;DHT22;25713;-35.352;149.036;2024-01-16T12:45:42;19.50;99.90
40023;DHT22;25713;-35.352;149.036;2024-01-16T12:48:11;19.50;99.90
40023;DHT22;25713;-35.352;149.036;2024-01-16T12:50:41;19.50;99.90
40023;DHT22;25713;-35.352;149.036;2024-01-16T12:53:14;19.50;99.90
40023;DHT22;25713;-35.352;149.036;2024-01-16T12:55:43;19.50;99.90
40023;DHT22;25713;-35.352;149.036;2024-01-16T12:58:14;19.50;99.90
40023;DHT22;25713;-35.352;149.036;2024-01-16T13:00:45;19.50;99.90
40023;DHT22;25713;-35.352;149.036;2024-01-16T13:03:19;19.50;99.90
40023;DHT22;25713;-35.352;149.036;2024-01-16T13:05:56;19.50;99.90
40023;DHT22;25713;-35.352;149.036;2024-01-16T13:08:28;19.50;99.90
40023;DHT22;25713;-35.352;149.036;2024-01-16T13:11:05;19.50;99.90
40023;DHT22;25713;-35.352;149.036;2024-01-16T13:13:35;19.50;99.90
40023;DHT22;25713;-35.352;149.036;2024-01-16T13:16:06;19.50;99.90
40023;DHT22;25713;-35.352;149.036;2024-01-16T13:18:36;19.40;99.90
40023;DHT22;25713;-35.352;149.036;2024-01-16T13:21:06;19.50;99.90
40023;DHT22;25713;-35.352;149.036;2024-01-16T13:23:37;19.50;99.90
40023;DHT22;25713;-35.352;149.036;2024-01-16T13:26:07;19.50;99.90
40023;DHT22;25713;-35.352;149.036;2024-01-16T13:28:36;19.40;99.90
40023;DHT22;25713;-35.352;149.036;2024-01-16T13:31:06;19.40;99.90
40023;DHT22;25713;-35.352;149.036;2024-01-16T13:33:35;19.40;99.90
40023;DHT22;25713;-35.352;149.036;2024-01-16T13:36:05;19.40;99.90
40023;DHT22;25713;-35.352;149.036;2024-01-16T13:38:37;19.40;99.80
40023;DHT22;25713;-35.352;149.036;2024-01-16T13:41:06;19.40;99.80
40023;DHT22;25713;-35.352;149.036;2024-01-16T13:43:36;19.40;99.80
40023;DHT22;25713;-35.352;149.036;2024-01-16T13:46:05;19.40;99.80
40023;DHT22;25713;-35.352;149.036;2024-01-16T13:48:35;19.40;99.80
40023;DHT22;25713;-35.352;149.036;2024-01-16T13:51:05;19.40;99.80
40023;DHT22;25713;-35.352;149.036;2024-01-16T13:53:36;19.40;99.80
40023;DHT22;25713;-35.352;149.036;2024-01-16T13:56:06;19.40;99.80
40023;DHT22;25713;-35.352;149.036;2024-01-16T13:58:35;19.40;99.80
40023;DHT22;25713;-35.352;149.036;2024-01-16T14:01:05;19.40;99.80
40023;DHT22;25713;-35.352;149.036;2024-01-16T14:03:35;19.40;99.90
40023;DHT22;25713;-35.352;149.036;2024-01-16T14:06:04;19.40;99.90
40023;DHT22;25713;-35.352;149.036;2024-01-16T14:08:34;19.40;99.90
40023;DHT22;25713;-35.352;149.036;2024-01-16T14:11:05;19.40;99.90
40023;DHT22;25713;-35.352;149.036;2024-01-16T14:13:35;19.40;99.90
40023;DHT22;25713;-35.352;149.036;2024-01-16T14:16:04;19.40;99.90
40023;DHT22;25713;-35.352;149.036;2024-01-16T14:18:34;19.40;99.90
40023;DHT22;25713;-35.352;149.036;2024-01-16T14:21:04;19.40;99.90
40023;DHT22;25713;-35.352;149.036;2024-01-16T14:23:33;19.40;99.90
40023;DHT22;25713;-35.352;149.036;2024-01-16T14:26:05;19.40;99.90
40023;DHT22;25713;-35.352;149.036;2024-01-16T14:28:35;19.40;99.90
40023;DHT22;25713;-35.352;149.036;2024-01-16T14:31:04;19.30;99.90
40023;DHT22;25713;-35.352;149.036;2024-01-16T14:33:35;19.40;99.90
40023;DHT22;25713;-35.352;149.036;2024-01-16T14:36:05;19.40;99.90
40023;DHT22;25713;-35.352;149.036;2024-01-16T14:38:34;19.40;99.90
40023;DHT22;25713;-35.352;149.036;2024-01-16T14:41:06;19.40;99.90
40023;DHT22;25713;-35.352;149.036;2024-01-16T14:43:35;19.40;99.90
40023;DHT22;25713;-35.352;149.036;2024-01-16T15:47:12;19.20;99.90
40023;DHT22;25713;-35.352;149.036;2024-01-16T15:49:42;19.10;99.90
40023;DHT22;25713;-35.352;149.036;2024-01-16T15:52:13;19.20;99.90
40023;DHT22;25713;-35.352;149.036;2024-01-16T15:54:43;19.20;99.90
40023;DHT22;25713;-35.352;149.036;2024-01-16T15:57:12;19.20;99.90
40023;DHT22;25713;-35.352;149.036;2024-01-16T15:59:42;19.20;99.90
40023;DHT22;25713;-35.352;149.036;2024-01-16T16:02:13;19.20;99.90
40023;DHT22;25713;-35.352;149.036;2024-01-16T16:04:43;19.20;99.90
40023;DHT22;25713;-35.352;149.036;2024-01-16T16:07:12;19.20;99.90
40023;DHT22;25713;-35.352;149.036;2024-01-16T16:09:42;19.20;99.90
40023;DHT22;25713;-35.352;149.036;2024-01-16T16:12:12;19.30;99.90
40023;DHT22;25713;-35.352;149.036;2024-01-16T16:14:41;19.30;99.90